Long Key, Florida
Current Conditions -  °F | °C
As of 11:53 AM on Thursday 23 Oct 2014 (Local Time) from KMTH Reporting Station
Overcast Overcast  
Wind Chill: 80°   Ceiling: 2100
Heat Index: 85°   Visibility: 10mi
Dew Point: 76°   Wind: 10mph
Humidity: 87%   Direction: 90°E
Pressure: 29.89"   Gusts: 18mph
Location:  24.82°N, 80.82°W
Report Text: KMTH 231553Z AUTO 09009G16KT 10SM SCT016 BKN021 OVC041 27/24 A2989 RMK AO2 SLP122 T02670244 $
Loading
Personal Weather Stations






























Interactive Weather Map
Tropical Storm Tracking
New forecast layout! Learn more

10-Day Weather Forecast

Advertisements
Track Severe Weather on mobile